sensor_id;sensor_type;location;lat;lon;timestamp;P1;durP1;ratioP1;P2;durP2;ratioP2
14892;SDS011;7538;53.626;9.906;2023-04-23T00:01:44;6.60;;;5.75;;
14892;SDS011;7538;53.626;9.906;2023-04-23T00:04:11;6.68;;;5.75;;
14892;SDS011;7538;53.626;9.906;2023-04-23T00:06:43;6.55;;;5.97;;
14892;SDS011;7538;53.626;9.906;2023-04-23T00:09:12;6.97;;;6.28;;
14892;SDS011;7538;53.626;9.906;2023-04-23T00:11:41;6.63;;;6.03;;
14892;SDS011;7538;53.626;9.906;2023-04-23T00:14:08;6.45;;;5.63;;
14892;SDS011;7538;53.626;9.906;2023-04-23T00:16:35;7.10;;;6.50;;
14892;SDS011;7538;53.626;9.906;2023-04-23T00:19:03;7.95;;;6.93;;
14892;SDS011;7538;53.626;9.906;2023-04-23T00:21:29;8.30;;;7.50;;
14892;SDS011;7538;53.626;9.906;2023-04-23T00:23:58;8.45;;;7.65;;
14892;SDS011;7538;53.626;9.906;2023-04-23T00:26:25;8.02;;;7.22;;
14892;SDS011;7538;53.626;9.906;2023-04-23T00:28:52;8.18;;;7.38;;
14892;SDS011;7538;53.626;9.906;2023-04-23T00:31:19;7.90;;;7.10;;
14892;SDS011;7538;53.626;9.906;2023-04-23T00:33:46;8.73;;;7.82;;
14892;SDS011;7538;53.626;9.906;2023-04-23T00:36:13;9.63;;;8.73;;
14892;SDS011;7538;53.626;9.906;2023-04-23T00:38:40;9.18;;;8.38;;
14892;SDS011;7538;53.626;9.906;2023-04-23T00:41:08;9.35;;;8.48;;
14892;SDS011;7538;53.626;9.906;2023-04-23T00:43:35;10.65;;;9.63;;
14892;SDS011;7538;53.626;9.906;2023-04-23T00:46:02;9.88;;;8.98;;
14892;SDS011;7538;53.626;9.906;2023-04-23T00:48:30;10.18;;;9.25;;
14892;SDS011;7538;53.626;9.906;2023-04-23T00:50:58;12.88;;;11.45;;
14892;SDS011;7538;53.626;9.906;2023-04-23T00:53:28;12.07;;;10.93;;
14892;SDS011;7538;53.626;9.906;2023-04-23T00:55:55;11.75;;;10.55;;
14892;SDS011;7538;53.626;9.906;2023-04-23T00:58:24;11.23;;;10.07;;
14892;SDS011;7538;53.626;9.906;2023-04-23T01:00:51;10.52;;;9.52;;
14892;SDS011;7538;53.626;9.906;2023-04-23T01:03:19;11.68;;;10.55;;
14892;SDS011;7538;53.626;9.906;2023-04-23T01:05:47;13.23;;;11.98;;
14892;SDS011;7538;53.626;9.906;2023-04-23T01:08:16;11.05;;;10.02;;
14892;SDS011;7538;53.626;9.906;2023-04-23T01:10:44;13.35;;;10.27;;
14892;SDS011;7538;53.626;9.906;2023-04-23T01:13:12;11.60;;;10.40;;
14892;SDS011;7538;53.626;9.906;2023-04-23T01:15:41;11.68;;;10.57;;
14892;SDS011;7538;53.626;9.906;2023-04-23T01:18:09;11.93;;;10.73;;
14892;SDS011;7538;53.626;9.906;2023-04-23T01:20:36;12.90;;;11.70;;
14892;SDS011;7538;53.626;9.906;2023-04-23T01:23:05;12.48;;;11.18;;
14892;SDS011;7538;53.626;9.906;2023-04-23T01:25:33;12.48;;;11.38;;
14892;SDS011;7538;53.626;9.906;2023-04-23T01:27:59;13.02;;;11.73;;
14892;SDS011;7538;53.626;9.906;2023-04-23T01:30:28;12.07;;;10.98;;
14892;SDS011;7538;53.626;9.906;2023-04-23T01:32:55;12.40;;;11.18;;
14892;SDS011;7538;53.626;9.906;2023-04-23T01:35:22;14.40;;;11.93;;
14892;SDS011;7538;53.626;9.906;2023-04-23T01:37:50;13.63;;;11.57;;
14892;SDS011;7538;53.626;9.906;2023-04-23T01:40:20;12.50;;;11.30;;
14892;SDS011;7538;53.626;9.906;2023-04-23T01:42:47;15.00;;;13.52;;
14892;SDS011;7538;53.626;9.906;2023-04-23T01:45:14;15.38;;;13.90;;
14892;SDS011;7538;53.626;9.906;2023-04-23T01:47:43;14.75;;;13.27;;
14892;SDS011;7538;53.626;9.906;2023-04-23T01:50:11;16.73;;;14.93;;
14892;SDS011;7538;53.626;9.906;2023-04-23T01:52:37;26.85;;;23.10;;
14892;SDS011;7538;53.626;9.906;2023-04-23T01:55:05;28.65;;;25.27;;
14892;SDS011;7538;53.626;9.906;2023-04-23T01:57:34;27.40;;;24.50;;
14892;SDS011;7538;53.626;9.906;2023-04-23T02:00:02;28.77;;;25.67;;
14892;SDS011;7538;53.626;9.906;2023-04-23T02:02:34;27.02;;;24.15;;
14892;SDS011;7538;53.626;9.906;2023-04-23T02:05:02;27.35;;;24.15;;
14892;SDS011;7538;53.626;9.906;2023-04-23T02:07:30;29.27;;;25.85;;
14892;SDS011;7538;53.626;9.906;2023-04-23T02:09:57;28.38;;;25.38;;
14892;SDS011;7538;53.626;9.906;2023-04-23T02:12:24;28.77;;;25.67;;
14892;SDS011;7538;53.626;9.906;2023-04-23T02:14:52;30.38;;;26.85;;
14892;SDS011;7538;53.626;9.906;2023-04-23T02:17:20;30.77;;;27.08;;
14892;SDS011;7538;53.626;9.906;2023-04-23T02:19:48;28.40;;;23.45;;
14892;SDS011;7538;53.626;9.906;2023-04-23T02:22:15;29.80;;;26.33;;
14892;SDS011;7538;53.626;9.906;2023-04-23T02:24:42;31.27;;;26.15;;
14892;SDS011;7538;53.626;9.906;2023-04-23T02:27:11;28.15;;;24.13;;
14892;SDS011;7538;53.626;9.906;2023-04-23T02:29:38;26.83;;;23.13;;
14892;SDS011;7538;53.626;9.906;2023-04-23T02:32:06;28.90;;;22.13;;
14892;SDS011;7538;53.626;9.906;2023-04-23T02:34:33;27.70;;;23.27;;
14892;SDS011;7538;53.626;9.906;2023-04-23T02:37:00;25.65;;;22.85;;
14892;SDS011;7538;53.626;9.906;2023-04-23T02:39:29;25.88;;;20.90;;
14892;SDS011;7538;53.626;9.906;2023-04-23T02:41:55;22.77;;;19.13;;
14892;SDS011;7538;53.626;9.906;2023-04-23T02:44:23;24.60;;;21.70;;
14892;SDS011;7538;53.626;9.906;2023-04-23T02:46:50;26.90;;;21.50;;
14892;SDS011;7538;53.626;9.906;2023-04-23T02:49:18;23.98;;;20.70;;
14892;SDS011;7538;53.626;9.906;2023-04-23T02:51:45;21.75;;;18.55;;
14892;SDS011;7538;53.626;9.906;2023-04-23T02:54:12;24.80;;;20.23;;
14892;SDS011;7538;53.626;9.906;2023-04-23T02:56:39;23.75;;;19.45;;
14892;SDS011;7538;53.626;9.906;2023-04-23T02:59:07;21.70;;;19.35;;
14892;SDS011;7538;53.626;9.906;2023-04-23T03:01:34;21.98;;;18.92;;
14892;SDS011;7538;53.626;9.906;2023-04-23T03:04:01;21.30;;;18.88;;
14892;SDS011;7538;53.626;9.906;2023-04-23T03:06:30;23.60;;;17.55;;
14892;SDS011;7538;53.626;9.906;2023-04-23T03:08:58;22.75;;;17.73;;
14892;SDS011;7538;53.626;9.906;2023-04-23T03:11:25;21.65;;;17.20;;
14892;SDS011;7538;53.626;9.906;2023-04-23T03:13:52;22.10;;;17.77;;
14892;SDS011;7538;53.626;9.906;2023-04-23T03:16:19;19.10;;;16.00;;
14892;SDS011;7538;53.626;9.906;2023-04-23T03:18:45;19.25;;;17.15;;
14892;SDS011;7538;53.626;9.906;2023-04-23T03:21:12;17.55;;;15.55;;
14892;SDS011;7538;53.626;9.906;2023-04-23T03:23:40;19.50;;;17.45;;
14892;SDS011;7538;53.626;9.906;2023-04-23T03:26:07;17.67;;;14.45;;
14892;SDS011;7538;53.626;9.906;2023-04-23T03:28:34;18.33;;;13.63;;
14892;SDS011;7538;53.626;9.906;2023-04-23T03:31:01;15.50;;;13.52;;
14892;SDS011;7538;53.626;9.906;2023-04-23T03:33:28;15.23;;;13.30;;
14892;SDS011;7538;53.626;9.906;2023-04-23T03:35:55;15.77;;;13.50;;
14892;SDS011;7538;53.626;9.906;2023-04-23T03:38:22;14.88;;;12.70;;
14892;SDS011;7538;53.626;9.906;2023-04-23T03:40:50;15.70;;;12.98;;
14892;SDS011;7538;53.626;9.906;2023-04-23T03:43:17;14.52;;;11.93;;
14892;SDS011;7538;53.626;9.906;2023-04-23T03:45:44;15.98;;;12.57;;
14892;SDS011;7538;53.626;9.906;2023-04-23T03:48:10;11.55;;;10.32;;
14892;SDS011;7538;53.626;9.906;2023-04-23T03:50:37;13.02;;;9.82;;
14892;SDS011;7538;53.626;9.906;2023-04-23T03:53:04;11.43;;;10.30;;
14892;SDS011;7538;53.626;9.906;2023-04-23T03:55:32;13.05;;;10.50;;
14892;SDS011;7538;53.626;9.906;2023-04-23T03:58:01;9.38;;;8.38;;
14892;SDS011;7538;53.626;9.906;2023-04-23T04:00:28;12.30;;;9.98;;
14892;SDS011;7538;53.626;9.906;2023-04-23T04:02:55;9.68;;;8.65;;
14892;SDS011;7538;53.626;9.906;2023-04-23T04:05:22;12.93;;;9.52;;
14892;SDS011;7538;53.626;9.906;2023-04-23T04:07:49;9.95;;;8.95;;
14892;SDS011;7538;53.626;9.906;2023-04-23T04:10:15;12.27;;;10.10;;
14892;SDS011;7538;53.626;9.906;2023-04-23T04:12:42;10.45;;;9.05;;
14892;SDS011;7538;53.626;9.906;2023-04-23T04:15:13;11.63;;;9.98;;
14892;SDS011;7538;53.626;9.906;2023-04-23T04:17:40;11.85;;;9.10;;
14892;SDS011;7538;53.626;9.906;2023-04-23T04:20:10;11.10;;;9.63;;
14892;SDS011;7538;53.626;9.906;2023-04-23T04:22:37;12.60;;;10.55;;
14892;SDS011;7538;53.626;9.906;2023-04-23T04:25:05;10.65;;;8.77;;
14892;SDS011;7538;53.626;9.906;2023-04-23T04:27:32;10.18;;;8.90;;
14892;SDS011;7538;53.626;9.906;2023-04-23T04:29:59;10.05;;;8.85;;
14892;SDS011;7538;53.626;9.906;2023-04-23T04:32:28;10.30;;;8.95;;
14892;SDS011;7538;53.626;9.906;2023-04-23T04:34:55;11.20;;;8.90;;
14892;SDS011;7538;53.626;9.906;2023-04-23T04:37:22;10.27;;;8.68;;
14892;SDS011;7538;53.626;9.906;2023-04-23T04:39:50;10.25;;;8.65;;
14892;SDS011;7538;53.626;9.906;2023-04-23T04:42:18;9.63;;;8.18;;
14892;SDS011;7538;53.626;9.906;2023-04-23T04:44:45;10.90;;;8.50;;
14892;SDS011;7538;53.626;9.906;2023-04-23T04:47:12;9.20;;;7.93;;
14892;SDS011;7538;53.626;9.906;2023-04-23T04:49:41;11.48;;;8.98;;
14892;SDS011;7538;53.626;9.906;2023-04-23T04:52:09;9.77;;;8.77;;
14892;SDS011;7538;53.626;9.906;2023-04-23T04:54:36;9.10;;;8.15;;
14892;SDS011;7538;53.626;9.906;2023-04-23T04:57:02;9.32;;;7.85;;
14892;SDS011;7538;53.626;9.906;2023-04-23T04:59:30;8.95;;;7.88;;
14892;SDS011;7538;53.626;9.906;2023-04-23T05:01:57;9.57;;;7.78;;
14892;SDS011;7538;53.626;9.906;2023-04-23T05:04:24;10.18;;;7.47;;
14892;SDS011;7538;53.626;9.906;2023-04-23T05:06:53;7.93;;;6.68;;
14892;SDS011;7538;53.626;9.906;2023-04-23T05:09:20;9.95;;;8.23;;
14892;SDS011;7538;53.626;9.906;2023-04-23T05:11:47;11.32;;;8.63;;
14892;SDS011;7538;53.626;9.906;2023-04-23T05:14:14;9.45;;;7.75;;
14892;SDS011;7538;53.626;9.906;2023-04-23T05:16:41;7.15;;;6.45;;
14892;SDS011;7538;53.626;9.906;2023-04-23T05:19:08;8.05;;;7.13;;
14892;SDS011;7538;53.626;9.906;2023-04-23T05:21:34;8.30;;;6.97;;
14892;SDS011;7538;53.626;9.906;2023-04-23T05:24:03;7.95;;;7.13;;
14892;SDS011;7538;53.626;9.906;2023-04-23T05:26:30;8.30;;;6.72;;
14892;SDS011;7538;53.626;9.906;2023-04-23T05:28:57;8.85;;;7.43;;
14892;SDS011;7538;53.626;9.906;2023-04-23T05:31:24;7.60;;;6.65;;
14892;SDS011;7538;53.626;9.906;2023-04-23T05:33:51;8.20;;;7.40;;
14892;SDS011;7538;53.626;9.906;2023-04-23T05:36:18;9.45;;;7.70;;
14892;SDS011;7538;53.626;9.906;2023-04-23T05:38:46;8.23;;;6.43;;
14892;SDS011;7538;53.626;9.906;2023-04-23T05:41:14;7.05;;;6.35;;
14892;SDS011;7538;53.626;9.906;2023-04-23T05:43:41;9.43;;;7.47;;
14892;SDS011;7538;53.626;9.906;2023-04-23T05:46:08;10.65;;;9.15;;
14892;SDS011;7538;53.626;9.906;2023-04-23T05:48:35;10.18;;;8.82;;
14892;SDS011;7538;53.626;9.906;2023-04-23T05:51:02;10.30;;;8.07;;
14892;SDS011;7538;53.626;9.906;2023-04-23T05:53:29;12.35;;;9.27;;
14892;SDS011;7538;53.626;9.906;2023-04-23T05:55:56;9.15;;;7.65;;
14892;SDS011;7538;53.626;9.906;2023-04-23T05:58:24;9.45;;;7.68;;
14892;SDS011;7538;53.626;9.906;2023-04-23T06:00:51;8.63;;;7.05;;
14892;SDS011;7538;53.626;9.906;2023-04-23T06:03:18;8.80;;;7.47;;
14892;SDS011;7538;53.626;9.906;2023-04-23T06:05:45;8.48;;;7.45;;
14892;SDS011;7538;53.626;9.906;2023-04-23T06:08:12;10.43;;;7.13;;
14892;SDS011;7538;53.626;9.906;2023-04-23T06:10:39;11.55;;;7.88;;
14892;SDS011;7538;53.626;9.906;2023-04-23T06:13:06;7.75;;;6.68;;
14892;SDS011;7538;53.626;9.906;2023-04-23T06:15:36;7.93;;;7.20;;
14892;SDS011;7538;53.626;9.906;2023-04-23T06:18:03;8.35;;;7.05;;
14892;SDS011;7538;53.626;9.906;2023-04-23T06:20:30;8.23;;;6.72;;
14892;SDS011;7538;53.626;9.906;2023-04-23T06:22:57;7.25;;;6.45;;
14892;SDS011;7538;53.626;9.906;2023-04-23T06:25:24;7.13;;;6.35;;
14892;SDS011;7538;53.626;9.906;2023-04-23T06:27:51;7.78;;;6.68;;
14892;SDS011;7538;53.626;9.906;2023-04-23T06:30:17;7.80;;;6.20;;
14892;SDS011;7538;53.626;9.906;2023-04-23T06:32:46;6.47;;;5.70;;
14892;SDS011;7538;53.626;9.906;2023-04-23T06:35:12;6.50;;;5.80;;
14892;SDS011;7538;53.626;9.906;2023-04-23T06:37:39;8.57;;;6.18;;
14892;SDS011;7538;53.626;9.906;2023-04-23T06:40:06;6.70;;;5.00;;
14892;SDS011;7538;53.626;9.906;2023-04-23T06:42:33;5.43;;;4.68;;
14892;SDS011;7538;53.626;9.906;2023-04-23T06:45:00;6.55;;;5.70;;
14892;SDS011;7538;53.626;9.906;2023-04-23T06:47:28;5.57;;;5.03;;
14892;SDS011;7538;53.626;9.906;2023-04-23T06:49:57;5.93;;;4.57;;
14892;SDS011;7538;53.626;9.906;2023-04-23T06:52:24;4.60;;;4.20;;
14892;SDS011;7538;53.626;9.906;2023-04-23T06:54:52;5.00;;;4.60;;
14892;SDS011;7538;53.626;9.906;2023-04-23T06:57:18;6.57;;;5.90;;
14892;SDS011;7538;53.626;9.906;2023-04-23T06:59:45;7.63;;;5.00;;
14892;SDS011;7538;53.626;9.906;2023-04-23T07:02:12;6.35;;;4.90;;
14892;SDS011;7538;53.626;9.906;2023-04-23T07:04:39;6.03;;;4.22;;
14892;SDS011;7538;53.626;9.906;2023-04-23T07:07:07;6.72;;;5.03;;
14892;SDS011;7538;53.626;9.906;2023-04-23T07:09:34;6.50;;;5.40;;
14892;SDS011;7538;53.626;9.906;2023-04-23T07:12:01;6.68;;;5.25;;
14892;SDS011;7538;53.626;9.906;2023-04-23T07:14:28;6.43;;;5.22;;
14892;SDS011;7538;53.626;9.906;2023-04-23T07:16:56;4.93;;;4.40;;
14892;SDS011;7538;53.626;9.906;2023-04-23T07:19:23;6.60;;;5.35;;
14892;SDS011;7538;53.626;9.906;2023-04-23T07:21:51;6.18;;;4.88;;
14892;SDS011;7538;53.626;9.906;2023-04-23T07:24:19;5.75;;;5.07;;
14892;SDS011;7538;53.626;9.906;2023-04-23T07:26:46;6.32;;;5.35;;
14892;SDS011;7538;53.626;9.906;2023-04-23T07:29:13;6.65;;;5.97;;
14892;SDS011;7538;53.626;9.906;2023-04-23T07:31:40;9.07;;;6.72;;
14892;SDS011;7538;53.626;9.906;2023-04-23T07:34:07;8.27;;;6.38;;
14892;SDS011;7538;53.626;9.906;2023-04-23T07:36:35;6.90;;;5.97;;
14892;SDS011;7538;53.626;9.906;2023-04-23T07:39:02;7.72;;;6.93;;
14892;SDS011;7538;53.626;9.906;2023-04-23T07:41:31;7.05;;;6.35;;
14892;SDS011;7538;53.626;9.906;2023-04-23T07:43:58;6.85;;;6.15;;
14892;SDS011;7538;53.626;9.906;2023-04-23T07:46:25;5.88;;;4.95;;
14892;SDS011;7538;53.626;9.906;2023-04-23T07:48:52;7.68;;;6.45;;
14892;SDS011;7538;53.626;9.906;2023-04-23T07:51:19;7.00;;;5.90;;
14892;SDS011;7538;53.626;9.906;2023-04-23T07:53:50;6.60;;;5.50;;
14892;SDS011;7538;53.626;9.906;2023-04-23T07:56:18;8.38;;;5.75;;
14892;SDS011;7538;53.626;9.906;2023-04-23T07:58:47;6.07;;;5.38;;
14892;SDS011;7538;53.626;9.906;2023-04-23T08:01:13;6.75;;;5.72;;
14892;SDS011;7538;53.626;9.906;2023-04-23T08:03:40;6.28;;;5.60;;
14892;SDS011;7538;53.626;9.906;2023-04-23T08:06:08;6.28;;;5.35;;
14892;SDS011;7538;53.626;9.906;2023-04-23T08:08:36;6.22;;;5.13;;
14892;SDS011;7538;53.626;9.906;2023-04-23T08:11:03;5.22;;;4.63;;
14892;SDS011;7538;53.626;9.906;2023-04-23T08:13:30;4.82;;;3.80;;
14892;SDS011;7538;53.626;9.906;2023-04-23T08:15:59;6.40;;;5.70;;
14892;SDS011;7538;53.626;9.906;2023-04-23T08:18:26;4.40;;;3.95;;
14892;SDS011;7538;53.626;9.906;2023-04-23T08:20:53;7.18;;;5.45;;
14892;SDS011;7538;53.626;9.906;2023-04-23T08:23:21;5.93;;;5.30;;
14892;SDS011;7538;53.626;9.906;2023-04-23T08:25:48;5.68;;;5.05;;
14892;SDS011;7538;53.626;9.906;2023-04-23T08:28:15;5.72;;;4.90;;
14892;SDS011;7538;53.626;9.906;2023-04-23T08:30:43;6.72;;;5.70;;
14892;SDS011;7538;53.626;9.906;2023-04-23T08:33:11;6.38;;;5.05;;
14892;SDS011;7538;53.626;9.906;2023-04-23T08:35:39;6.80;;;5.95;;
14892;SDS011;7538;53.626;9.906;2023-04-23T08:38:06;7.70;;;6.57;;
14892;SDS011;7538;53.626;9.906;2023-04-23T08:40:32;5.07;;;4.50;;
14892;SDS011;7538;53.626;9.906;2023-04-23T08:43:02;6.68;;;5.28;;
14892;SDS011;7538;53.626;9.906;2023-04-23T08:45:35;5.70;;;5.13;;
14892;SDS011;7538;53.626;9.906;2023-04-23T08:48:05;7.38;;;5.22;;
14892;SDS011;7538;53.626;9.906;2023-04-23T08:50:36;4.78;;;4.32;;
14892;SDS011;7538;53.626;9.906;2023-04-23T08:53:06;5.72;;;5.15;;
14892;SDS011;7538;53.626;9.906;2023-04-23T08:55:34;7.55;;;5.18;;
14892;SDS011;7538;53.626;9.906;2023-04-23T08:58:01;6.00;;;5.20;;
14892;SDS011;7538;53.626;9.906;2023-04-23T09:00:30;5.05;;;4.55;;
14892;SDS011;7538;53.626;9.906;2023-04-23T09:02:58;5.50;;;4.60;;
14892;SDS011;7538;53.626;9.906;2023-04-23T09:05:25;6.82;;;5.20;;
14892;SDS011;7538;53.626;9.906;2023-04-23T09:07:53;6.15;;;5.40;;
14892;SDS011;7538;53.626;9.906;2023-04-23T09:10:22;5.55;;;4.90;;
14892;SDS011;7538;53.626;9.906;2023-04-23T09:12:48;6.03;;;4.93;;
14892;SDS011;7538;53.626;9.906;2023-04-23T09:15:16;6.13;;;5.45;;
14892;SDS011;7538;53.626;9.906;2023-04-23T09:17:43;5.22;;;4.75;;
14892;SDS011;7538;53.626;9.906;2023-04-23T09:20:11;6.95;;;5.53;;
14892;SDS011;7538;53.626;9.906;2023-04-23T09:22:40;5.53;;;5.03;;
14892;SDS011;7538;53.626;9.906;2023-04-23T09:25:09;5.55;;;5.00;;
14892;SDS011;7538;53.626;9.906;2023-04-23T09:27:38;5.53;;;5.03;;
14892;SDS011;7538;53.626;9.906;2023-04-23T09:30:07;6.18;;;5.57;;
14892;SDS011;7538;53.626;9.906;2023-04-23T09:32:37;7.50;;;6.07;;
14892;SDS011;7538;53.626;9.906;2023-04-23T09:35:05;6.22;;;5.65;;
14892;SDS011;7538;53.626;9.906;2023-04-23T09:37:34;5.53;;;5.00;;
14892;SDS011;7538;53.626;9.906;2023-04-23T09:40:02;5.88;;;5.25;;
14892;SDS011;7538;53.626;9.906;2023-04-23T09:42:34;6.30;;;5.30;;
14892;SDS011;7538;53.626;9.906;2023-04-23T09:45:02;6.55;;;5.95;;
14892;SDS011;7538;53.626;9.906;2023-04-23T09:47:30;6.85;;;6.18;;
14892;SDS011;7538;53.626;9.906;2023-04-23T09:49:58;6.05;;;5.45;;
14892;SDS011;7538;53.626;9.906;2023-04-23T09:52:26;6.72;;;6.13;;
14892;SDS011;7538;53.626;9.906;2023-04-23T09:54:56;6.20;;;5.70;;
14892;SDS011;7538;53.626;9.906;2023-04-23T09:57:23;6.35;;;5.72;;
14892;SDS011;7538;53.626;9.906;2023-04-23T09:59:52;7.50;;;6.80;;
14892;SDS011;7538;53.626;9.906;2023-04-23T10:02:25;7.78;;;6.97;;
14892;SDS011;7538;53.626;9.906;2023-04-23T10:04:52;9.27;;;7.72;;
14892;SDS011;7538;53.626;9.906;2023-04-23T10:07:20;7.82;;;6.63;;
14892;SDS011;7538;53.626;9.906;2023-04-23T10:09:47;6.80;;;6.20;;
14892;SDS011;7538;53.626;9.906;2023-04-23T10:12:14;8.65;;;7.78;;
14892;SDS011;7538;53.626;9.906;2023-04-23T10:14:42;7.65;;;6.95;;
14892;SDS011;7538;53.626;9.906;2023-04-23T10:17:14;6.30;;;5.80;;
14892;SDS011;7538;53.626;9.906;2023-04-23T10:19:42;7.65;;;6.95;;
14892;SDS011;7538;53.626;9.906;2023-04-23T10:22:09;7.15;;;6.45;;
14892;SDS011;7538;53.626;9.906;2023-04-23T10:24:39;8.23;;;7.53;;
14892;SDS011;7538;53.626;9.906;2023-04-23T10:27:10;8.07;;;7.38;;
14892;SDS011;7538;53.626;9.906;2023-04-23T10:29:38;6.20;;;5.65;;
14892;SDS011;7538;53.626;9.906;2023-04-23T10:32:07;6.93;;;6.32;;
14892;SDS011;7538;53.626;9.906;2023-04-23T10:34:35;7.20;;;6.50;;
14892;SDS011;7538;53.626;9.906;2023-04-23T10:37:02;9.10;;;7.10;;
14892;SDS011;7538;53.626;9.906;2023-04-23T10:39:31;8.52;;;7.70;;
14892;SDS011;7538;53.626;9.906;2023-04-23T10:42:00;9.75;;;8.13;;
14892;SDS011;7538;53.626;9.906;2023-04-23T10:44:31;6.78;;;6.20;;
14892;SDS011;7538;53.626;9.906;2023-04-23T10:46:59;8.77;;;7.97;;
14892;SDS011;7538;53.626;9.906;2023-04-23T10:49:28;9.07;;;8.18;;
14892;SDS011;7538;53.626;9.906;2023-04-23T10:52:01;7.30;;;6.60;;
14892;SDS011;7538;53.626;9.906;2023-04-23T10:54:29;9.38;;;8.50;;
14892;SDS011;7538;53.626;9.906;2023-04-23T10:56:57;7.72;;;7.03;;
14892;SDS011;7538;53.626;9.906;2023-04-23T10:59:27;10.52;;;9.63;;
14892;SDS011;7538;53.626;9.906;2023-04-23T11:01:55;9.95;;;9.05;;
14892;SDS011;7538;53.626;9.906;2023-04-23T11:04:25;8.90;;;8.20;;
14892;SDS011;7538;53.626;9.906;2023-04-23T11:06:53;10.00;;;9.20;;
14892;SDS011;7538;53.626;9.906;2023-04-23T11:09:35;11.95;;;10.95;;
14892;SDS011;7538;53.626;9.906;2023-04-23T11:12:05;9.63;;;8.82;;
14892;SDS011;7538;53.626;9.906;2023-04-23T11:14:40;12.73;;;11.63;;
14892;SDS011;7538;53.626;9.906;2023-04-23T11:17:11;12.02;;;11.02;;
14892;SDS011;7538;53.626;9.906;2023-04-23T11:19:39;11.35;;;10.10;;
14892;SDS011;7538;53.626;9.906;2023-04-23T11:22:11;12.05;;;11.05;;
14892;SDS011;7538;53.626;9.906;2023-04-23T11:24:41;10.48;;;9.57;;
14892;SDS011;7538;53.626;9.906;2023-04-23T11:27:10;8.80;;;8.00;;
14892;SDS011;7538;53.626;9.906;2023-04-23T11:29:39;9.88;;;8.90;;
14892;SDS011;7538;53.626;9.906;2023-04-23T11:32:07;10.43;;;9.40;;
14892;SDS011;7538;53.626;9.906;2023-04-23T11:34:37;10.00;;;9.10;;
14892;SDS011;7538;53.626;9.906;2023-04-23T11:37:05;8.50;;;7.70;;
14892;SDS011;7538;53.626;9.906;2023-04-23T11:39:34;8.38;;;7.50;;
14892;SDS011;7538;53.626;9.906;2023-04-23T11:42:03;7.78;;;7.18;;
14892;SDS011;7538;53.626;9.906;2023-04-23T11:44:30;6.97;;;6.38;;
14892;SDS011;7538;53.626;9.906;2023-04-23T11:46:58;8.63;;;6.13;;
14892;SDS011;7538;53.626;9.906;2023-04-23T11:49:26;6.75;;;6.15;;
14892;SDS011;7538;53.626;9.906;2023-04-23T11:51:53;6.60;;;5.90;;
14892;SDS011;7538;53.626;9.906;2023-04-23T11:54:23;5.15;;;4.65;;
14892;SDS011;7538;53.626;9.906;2023-04-23T11:56:51;7.30;;;5.63;;
14892;SDS011;7538;53.626;9.906;2023-04-23T11:59:20;7.75;;;6.30;;
14892;SDS011;7538;53.626;9.906;2023-04-23T12:01:47;5.13;;;4.57;;
14892;SDS011;7538;53.626;9.906;2023-04-23T12:04:17;8.18;;;6.15;;
14892;SDS011;7538;53.626;9.906;2023-04-23T12:06:45;5.88;;;5.28;;
14892;SDS011;7538;53.626;9.906;2023-04-23T12:09:14;5.85;;;5.38;;
14892;SDS011;7538;53.626;9.906;2023-04-23T12:11:42;6.55;;;5.70;;
14892;SDS011;7538;53.626;9.906;2023-04-23T12:14:10;6.90;;;5.95;;
14892;SDS011;7538;53.626;9.906;2023-04-23T12:16:42;5.88;;;5.38;;
14892;SDS011;7538;53.626;9.906;2023-04-23T12:19:12;4.55;;;4.15;;
14892;SDS011;7538;53.626;9.906;2023-04-23T12:21:46;4.40;;;3.92;;
14892;SDS011;7538;53.626;9.906;2023-04-23T12:24:14;4.57;;;4.18;;
14892;SDS011;7538;53.626;9.906;2023-04-23T12:26:41;6.68;;;5.82;;
14892;SDS011;7538;53.626;9.906;2023-04-23T12:29:08;6.70;;;6.00;;
14892;SDS011;7538;53.626;9.906;2023-04-23T12:31:37;6.82;;;5.00;;
14892;SDS011;7538;53.626;9.906;2023-04-23T12:34:06;5.97;;;5.47;;
14892;SDS011;7538;53.626;9.906;2023-04-23T12:36:35;6.38;;;5.43;;
14892;SDS011;7538;53.626;9.906;2023-04-23T12:39:24;5.03;;;4.10;;
14892;SDS011;7538;53.626;9.906;2023-04-23T12:41:54;4.00;;;3.70;;
14892;SDS011;7538;53.626;9.906;2023-04-23T12:44:22;4.53;;;4.13;;
14892;SDS011;7538;53.626;9.906;2023-04-23T12:46:52;5.85;;;5.35;;
14892;SDS011;7538;53.626;9.906;2023-04-23T12:49:21;6.22;;;5.65;;
14892;SDS011;7538;53.626;9.906;2023-04-23T12:51:48;5.38;;;4.88;;
14892;SDS011;7538;53.626;9.906;2023-04-23T12:54:16;4.28;;;3.88;;
14892;SDS011;7538;53.626;9.906;2023-04-23T12:56:43;5.80;;;5.15;;
14892;SDS011;7538;53.626;9.906;2023-04-23T12:59:10;4.40;;;4.00;;
14892;SDS011;7538;53.626;9.906;2023-04-23T13:01:37;5.20;;;4.72;;
14892;SDS011;7538;53.626;9.906;2023-04-23T13:04:04;4.63;;;4.22;;
14892;SDS011;7538;53.626;9.906;2023-04-23T13:06:32;4.55;;;4.15;;
14892;SDS011;7538;53.626;9.906;2023-04-23T13:08:59;4.32;;;3.55;;
14892;SDS011;7538;53.626;9.906;2023-04-23T13:11:29;4.55;;;4.07;;
14892;SDS011;7538;53.626;9.906;2023-04-23T13:13:56;4.85;;;4.45;;
14892;SDS011;7538;53.626;9.906;2023-04-23T13:16:23;4.28;;;3.88;;
14892;SDS011;7538;53.626;9.906;2023-04-23T13:18:50;5.25;;;3.60;;
14892;SDS011;7538;53.626;9.906;2023-04-23T13:21:16;4.25;;;3.85;;
14892;SDS011;7538;53.626;9.906;2023-04-23T13:23:45;3.60;;;3.30;;
14892;SDS011;7538;53.626;9.906;2023-04-23T13:26:12;4.15;;;3.08;;
14892;SDS011;7538;53.626;9.906;2023-04-23T13:28:39;4.45;;;3.60;;
14892;SDS011;7538;53.626;9.906;2023-04-23T13:31:06;5.60;;;4.63;;
14892;SDS011;7538;53.626;9.906;2023-04-23T13:33:35;4.43;;;3.88;;
14892;SDS011;7538;53.626;9.906;2023-04-23T13:36:02;3.65;;;3.35;;
14892;SDS011;7538;53.626;9.906;2023-04-23T13:38:29;3.67;;;3.38;;
14892;SDS011;7538;53.626;9.906;2023-04-23T13:40:58;3.80;;;3.50;;
14892;SDS011;7538;53.626;9.906;2023-04-23T13:43:25;4.95;;;3.00;;
14892;SDS011;7538;53.626;9.906;2023-04-23T13:45:52;3.70;;;3.33;;
14892;SDS011;7538;53.626;9.906;2023-04-23T13:48:19;3.78;;;3.47;;
14892;SDS011;7538;53.626;9.906;2023-04-23T13:50:47;3.25;;;2.95;;
14892;SDS011;7538;53.626;9.906;2023-04-23T13:53:14;3.17;;;2.88;;
14892;SDS011;7538;53.626;9.906;2023-04-23T13:55:41;4.95;;;4.00;;
14892;SDS011;7538;53.626;9.906;2023-04-23T13:58:09;3.65;;;3.28;;
14892;SDS011;7538;53.626;9.906;2023-04-23T14:00:36;3.20;;;2.90;;
14892;SDS011;7538;53.626;9.906;2023-04-23T14:03:03;3.40;;;3.10;;
14892;SDS011;7538;53.626;9.906;2023-04-23T14:05:30;3.22;;;2.53;;
14892;SDS011;7538;53.626;9.906;2023-04-23T14:07:57;3.35;;;2.60;;
14892;SDS011;7538;53.626;9.906;2023-04-23T14:10:23;3.20;;;2.88;;
14892;SDS011;7538;53.626;9.906;2023-04-23T14:12:50;4.97;;;3.00;;
14892;SDS011;7538;53.626;9.906;2023-04-23T14:15:20;5.30;;;3.60;;
14892;SDS011;7538;53.626;9.906;2023-04-23T14:17:47;3.53;;;2.90;;
14892;SDS011;7538;53.626;9.906;2023-04-23T14:20:14;2.35;;;2.10;;
14892;SDS011;7538;53.626;9.906;2023-04-23T14:22:43;2.20;;;2.00;;
14892;SDS011;7538;53.626;9.906;2023-04-23T14:25:15;3.60;;;2.45;;
14892;SDS011;7538;53.626;9.906;2023-04-23T14:27:50;2.53;;;2.25;;
14892;SDS011;7538;53.626;9.906;2023-04-23T14:30:22;4.90;;;2.83;;
14892;SDS011;7538;53.626;9.906;2023-04-23T14:32:51;3.53;;;3.20;;
14892;SDS011;7538;53.626;9.906;2023-04-23T14:35:20;6.35;;;4.80;;
14892;SDS011;7538;53.626;9.906;2023-04-23T14:37:48;5.07;;;4.68;;
14892;SDS011;7538;53.626;9.906;2023-04-23T14:40:15;6.32;;;5.70;;
14892;SDS011;7538;53.626;9.906;2023-04-23T14:42:44;5.63;;;4.80;;
14892;SDS011;7538;53.626;9.906;2023-04-23T14:45:13;5.72;;;4.80;;
14892;SDS011;7538;53.626;9.906;2023-04-23T14:47:43;6.90;;;5.25;;
14892;SDS011;7538;53.626;9.906;2023-04-23T14:50:12;6.68;;;4.97;;
14892;SDS011;7538;53.626;9.906;2023-04-23T14:52:40;6.50;;;5.78;;
14892;SDS011;7538;53.626;9.906;2023-04-23T14:55:09;8.43;;;5.75;;
14892;SDS011;7538;53.626;9.906;2023-04-23T14:57:36;7.22;;;6.10;;